• Join FlightAware (Why Join?)
  • Login
  • US Flag 
07:22AM EST


 

Airport Tracker/Info


-or-


 

Live Flight TrackerFlight Track Log ✈ DAL1937 ✈ 20-May-2013 ✈ KBWI - KDTW

Flight Track Log - Related Links

Times and Time Zones

All times are in EDT time to prevent confusion due to time zone crossing. See the DAL1937 flight status page for this flight to view local times or setup timezone preferences in your user account.

Time Position Orientation Groundspeed Altitude Reporting Facility
EDT Latitude Longitude Course Direction KTS MPH feet Rate Location/Type
06:20AM 39.1500 -76.6500 303° West 166 191 1,200  Level Potomac TRACON
06:21AM 39.1333 -76.6833 237° Southwest 197 227 2,000 1,740 Climbing Potomac TRACON
06:22AM 39.1667 -76.7333 311° West 285 328 4,200 2,820 Climbing Potomac TRACON
06:23AM 39.2000 -76.8167 297° West 272 313 7,200 2,280 Climbing Potomac TRACON
06:25AM 39.2717 -77.0286 294° West 303 349 11,400 2,040 Climbing Washington Center
06:26AM 39.6289 -77.5795 303° West  Level Estimated
06:26AM 39.3097 -77.1500 292° West 340 391 13,900  Level Washington Center
06:27AM 39.3519 -77.2744 294° West 361 415 16,100 1,920 Climbing Washington Center
06:28AM 39.3958 -77.4017 294° West 381 438 17,800 1,800 Climbing Washington Center
06:29AM 39.4417 -77.5400 293° West 401 461 19,700 1,860 Climbing Washington Center
06:30AM 39.4831 -77.6781 291° West 412 474 21,600 1,620 Climbing Washington Center
06:31AM 39.5264 -77.8219 291° West 422 486 23,000 1,440 Climbing Washington Center
06:32AM 39.5714 -77.9742 291° West 435 501 24,500 1,500 Climbing Washington Center
06:34AM 39.6069 -78.1076 290° West  Level FlightAware Approximate
06:34AM 39.6756 -78.3067 290° West 444 511 27,900  Level Cleveland Center
06:35AM 39.7181 -78.4592 290° West 444 511 29,100 1,200 Climbing Cleveland Center
06:36AM 39.7689 -78.6278 291° West 450 518 30,300 960 Climbing Cleveland Center
06:37AM 39.8069 -78.7833 288° West 450 518 31,100 1,380 Climbing Cleveland Center
06:38AM 39.8531 -78.9336 292° West 455 524 33,100 1,440 Climbing Cleveland Center
06:39AM 39.8925 -79.0650 291° West 448 516 34,000 420 Climbing Cleveland Center
06:40AM 39.9361 -79.2158 291° West 442 509 34,000  Level Cleveland Center
06:41AM 39.9814 -79.3611 292° West 442 509 34,000  Level Cleveland Center
06:42AM 40.0475 -79.4956 303° West 442 509 34,000  Level Cleveland Center
06:43AM 40.1153 -79.6275 304° West 437 503 34,000  Level Cleveland Center
06:44AM 40.1831 -79.7597 304° West 442 509 34,000 -240 Level Cleveland Center
06:45AM 40.2506 -79.8947 303° West 442 509 33,600 -720 Descending Cleveland Center
06:46AM 40.3139 -80.0303 302° West 442 509 32,600 -960 Descending Cleveland Center
06:47AM 40.3833 -80.1661 304° West 442 509 31,700 -960 Descending Cleveland Center
06:48AM 40.4483 -80.2967 303° West 442 509 30,700 -900 Descending Cleveland Center
06:49AM 40.5256 -80.4411 305° West 442 509 30,000 -360 Descending Cleveland Center
06:50AM 40.5944 -80.5750 304° West 437 503 30,000  Level Cleveland Center
06:51AM 40.6611 -80.7117 303° West 437 503 30,000  Level Cleveland Center
06:52AM 40.7278 -80.8461 303° West 437 503 30,000  Level Cleveland Center
06:53AM 40.7939 -80.9808 303° West 437 503 30,000  Level Cleveland Center
06:54AM 40.8581 -81.1211 301° West 437 503 30,000  Level Cleveland Center
06:55AM 40.9239 -81.2564 303° West 437 503 30,000  Level Cleveland Center
06:56AM 40.9900 -81.3919 303° West 437 503 30,000 -60 Level Cleveland Center
06:57AM 41.0556 -81.5331 302° West 437 503 29,900 -600 Descending Cleveland Center
06:58AM 41.1208 -81.6692 303° West 437 503 28,900 -1,020 Descending Cleveland Center
06:59AM 41.1925 -81.8083 304° West 442 509 27,900 -960 Descending Cleveland Center
07:00AM 41.2575 -81.9503 301° West 447 514 27,000 -960 Descending Cleveland Center
07:01AM 41.3247 -82.0872 303° West 447 514 26,000 -1,560 Descending Cleveland Center
07:02AM 41.3917 -82.2244 303° West 447 514 23,900 -2,280 Descending Cleveland Center
07:03AM 41.4628 -82.3397 309° West 428 493 21,500 -2,400 Descending Cleveland Center
07:04AM 41.5339 -82.4556 309° West 407 468 19,100 -2,340 Descending Cleveland Center
07:05AM 41.5764 -82.5289 308° West 389 448 17,600 -2,280 Descending Cleveland Center
07:05AM 41.5969 -82.5600 311° West 385 443 16,900 -2,520 Descending Cleveland Center
07:06AM 41.6636 -82.6789 307° West 373 429 14,300 -2,400 Descending Cleveland Center
07:07AM 41.7303 -82.7839 310° West 364 419 12,100 -1,200 Descending Cleveland Center
07:08AM 41.7933 -82.8614 318° Northwest 365 420 12,000 -60 Descending Cleveland Center
07:09AM 41.8667 -82.9506 318° Northwest 358 412 12,000  Level Cleveland Center
07:10AM 41.9439 -83.0428 318° Northwest 358 412 12,000 -480 Level Cleveland Center
07:11AM 42.0172 -83.1322 318° Northwest 358 412 11,100 -540 Descending Cleveland Center
07:12AM 42.0800 -83.2075 318° Northwest 341 392 11,000 -240 Descending Cleveland Center
07:13AM 42.1506 -83.2272 348° North 268 308 10,700 -1,020 Descending Cleveland Center
07:14AM 42.2200 -83.1964 18° North 250 288 9,000 -1,860 Descending Cleveland Center
07:16AM 42.3025 -83.1353 29° Northeast 248 285 6,600 -1,740 Descending Cleveland Center
07:17AM 42.3675 -83.1264 North 219 252 5,000 -840 Descending Cleveland Center
07:18AM 42.3722 -83.1969 275° West 188 216 4,900 -120 Descending Cleveland Center